sensor_id;sensor_type;location;lat;lon;timestamp;P1;durP1;ratioP1;P2;durP2;ratioP2
84275;SDS011;74432;51.212;3.254;2024-03-02T00:02:12;2.17;;;1.50;;
84275;SDS011;74432;51.212;3.254;2024-03-02T00:04:38;3.45;;;1.30;;
84275;SDS011;74432;51.212;3.254;2024-03-02T00:07:04;3.28;;;1.30;;
84275;SDS011;74432;51.212;3.254;2024-03-02T00:09:29;2.17;;;1.40;;
84275;SDS011;74432;51.212;3.254;2024-03-02T00:11:55;1.95;;;1.48;;
84275;SDS011;74432;51.212;3.254;2024-03-02T00:14:21;1.75;;;1.23;;
84275;SDS011;74432;51.212;3.254;2024-03-02T00:16:49;2.17;;;1.63;;
84275;SDS011;74432;51.212;3.254;2024-03-02T00:19:16;2.58;;;1.42;;
84275;SDS011;74432;51.212;3.254;2024-03-02T00:21:42;1.23;;;1.10;;
84275;SDS011;74432;51.212;3.254;2024-03-02T00:24:17;1.33;;;1.23;;
84275;SDS011;74432;51.212;3.254;2024-03-02T00:26:45;1.83;;;1.58;;
84275;SDS011;74432;51.212;3.254;2024-03-02T00:29:11;2.53;;;1.50;;
84275;SDS011;74432;51.212;3.254;2024-03-02T00:31:40;2.08;;;1.30;;
84275;SDS011;74432;51.212;3.254;2024-03-02T00:34:06;1.35;;;1.25;;
84275;SDS011;74432;51.212;3.254;2024-03-02T00:36:32;2.05;;;1.50;;
84275;SDS011;74432;51.212;3.254;2024-03-02T00:38:58;2.42;;;1.58;;
84275;SDS011;74432;51.212;3.254;2024-03-02T00:41:27;2.25;;;1.60;;
84275;SDS011;74432;51.212;3.254;2024-03-02T00:46:22;1.75;;;1.35;;
84275;SDS011;74432;51.212;3.254;2024-03-02T00:48:55;2.80;;;1.52;;
84275;SDS011;74432;51.212;3.254;2024-03-02T00:51:22;2.10;;;1.55;;
84275;SDS011;74432;51.212;3.254;2024-03-02T00:53:50;2.33;;;1.50;;
84275;SDS011;74432;51.212;3.254;2024-03-02T00:56:17;1.90;;;1.38;;
84275;SDS011;74432;51.212;3.254;2024-03-02T00:58:43;1.35;;;1.17;;
84275;SDS011;74432;51.212;3.254;2024-03-02T01:01:09;2.67;;;1.40;;
84275;SDS011;74432;51.212;3.254;2024-03-02T01:03:35;2.72;;;1.65;;
84275;SDS011;74432;51.212;3.254;2024-03-02T01:06:02;3.60;;;1.50;;
84275;SDS011;74432;51.212;3.254;2024-03-02T01:08:29;2.15;;;1.42;;
84275;SDS011;74432;51.212;3.254;2024-03-02T01:10:54;3.20;;;1.50;;
84275;SDS011;74432;51.212;3.254;2024-03-02T01:13:21;2.83;;;1.25;;
84275;SDS011;74432;51.212;3.254;2024-03-02T01:15:48;2.00;;;1.20;;
84275;SDS011;74432;51.212;3.254;2024-03-02T01:18:14;3.08;;;1.40;;
84275;SDS011;74432;51.212;3.254;2024-03-02T01:20:40;3.53;;;1.48;;
84275;SDS011;74432;51.212;3.254;2024-03-02T01:23:05;3.53;;;1.73;;
84275;SDS011;74432;51.212;3.254;2024-03-02T01:25:31;1.42;;;1.30;;
84275;SDS011;74432;51.212;3.254;2024-03-02T01:27:56;2.17;;;1.33;;
84275;SDS011;74432;51.212;3.254;2024-03-02T01:30:22;3.28;;;1.50;;
84275;SDS011;74432;51.212;3.254;2024-03-02T01:32:48;3.60;;;1.38;;
84275;SDS011;74432;51.212;3.254;2024-03-02T01:35:13;1.20;;;1.10;;
84275;SDS011;74432;51.212;3.254;2024-03-02T01:37:40;1.95;;;1.30;;
84275;SDS011;74432;51.212;3.254;2024-03-02T01:40:06;1.40;;;1.30;;
84275;SDS011;74432;51.212;3.254;2024-03-02T01:42:37;4.18;;;1.42;;
84275;SDS011;74432;51.212;3.254;2024-03-02T01:45:07;1.38;;;1.27;;
84275;SDS011;74432;51.212;3.254;2024-03-02T01:47:34;2.55;;;1.30;;
84275;SDS011;74432;51.212;3.254;2024-03-02T01:50:00;3.63;;;1.45;;
84275;SDS011;74432;51.212;3.254;2024-03-02T01:52:26;1.95;;;1.23;;
84275;SDS011;74432;51.212;3.254;2024-03-02T01:54:52;1.20;;;1.10;;
84275;SDS011;74432;51.212;3.254;2024-03-02T01:57:18;3.85;;;1.50;;
84275;SDS011;74432;51.212;3.254;2024-03-02T01:59:44;3.63;;;1.60;;
84275;SDS011;74432;51.212;3.254;2024-03-02T02:02:12;1.50;;;1.33;;
84275;SDS011;74432;51.212;3.254;2024-03-02T02:04:39;1.75;;;1.20;;
84275;SDS011;74432;51.212;3.254;2024-03-02T02:07:04;1.80;;;1.50;;
84275;SDS011;74432;51.212;3.254;2024-03-02T02:09:31;2.50;;;1.60;;
84275;SDS011;74432;51.212;3.254;2024-03-02T02:11:57;2.10;;;1.52;;
84275;SDS011;74432;51.212;3.254;2024-03-02T02:14:23;2.58;;;1.40;;
84275;SDS011;74432;51.212;3.254;2024-03-02T02:16:49;2.15;;;1.42;;
84275;SDS011;74432;51.212;3.254;2024-03-02T02:19:15;4.65;;;1.60;;
84275;SDS011;74432;51.212;3.254;2024-03-02T02:21:43;2.30;;;1.70;;
84275;SDS011;74432;51.212;3.254;2024-03-02T02:24:09;4.57;;;1.42;;
84275;SDS011;74432;51.212;3.254;2024-03-02T02:26:35;2.03;;;1.50;;
84275;SDS011;74432;51.212;3.254;2024-03-02T02:29:01;2.42;;;1.50;;
84275;SDS011;74432;51.212;3.254;2024-03-02T02:31:27;5.43;;;1.60;;
84275;SDS011;74432;51.212;3.254;2024-03-02T02:34:01;1.58;;;1.40;;
84275;SDS011;74432;51.212;3.254;2024-03-02T02:36:26;5.43;;;1.80;;
84275;SDS011;74432;51.212;3.254;2024-03-02T02:38:52;1.83;;;1.55;;
84275;SDS011;74432;51.212;3.254;2024-03-02T02:41:18;5.07;;;1.70;;
84275;SDS011;74432;51.212;3.254;2024-03-02T02:43:43;3.58;;;1.75;;
84275;SDS011;74432;51.212;3.254;2024-03-02T02:46:09;5.82;;;2.28;;
84275;SDS011;74432;51.212;3.254;2024-03-02T02:48:35;5.13;;;2.33;;
84275;SDS011;74432;51.212;3.254;2024-03-02T02:51:01;3.17;;;2.00;;
84275;SDS011;74432;51.212;3.254;2024-03-02T02:53:27;4.07;;;2.33;;
84275;SDS011;74432;51.212;3.254;2024-03-02T02:55:52;6.80;;;2.30;;
84275;SDS011;74432;51.212;3.254;2024-03-02T02:58:18;4.85;;;2.13;;
84275;SDS011;74432;51.212;3.254;2024-03-02T03:00:44;5.22;;;2.05;;
84275;SDS011;74432;51.212;3.254;2024-03-02T03:03:09;5.72;;;2.15;;
84275;SDS011;74432;51.212;3.254;2024-03-02T03:05:35;5.50;;;2.40;;
84275;SDS011;74432;51.212;3.254;2024-03-02T03:08:01;3.20;;;2.67;;
84275;SDS011;74432;51.212;3.254;2024-03-02T03:10:26;4.50;;;2.30;;
84275;SDS011;74432;51.212;3.254;2024-03-02T03:12:52;4.32;;;2.05;;
84275;SDS011;74432;51.212;3.254;2024-03-02T03:15:21;2.22;;;1.92;;
84275;SDS011;74432;51.212;3.254;2024-03-02T03:17:46;4.65;;;1.98;;
84275;SDS011;74432;51.212;3.254;2024-03-02T03:20:12;4.97;;;2.38;;
84275;SDS011;74432;51.212;3.254;2024-03-02T03:22:39;8.35;;;2.45;;
84275;SDS011;74432;51.212;3.254;2024-03-02T03:25:05;6.93;;;2.40;;
84275;SDS011;74432;51.212;3.254;2024-03-02T03:27:32;5.93;;;2.47;;
84275;SDS011;74432;51.212;3.254;2024-03-02T03:29:57;5.25;;;2.40;;
84275;SDS011;74432;51.212;3.254;2024-03-02T03:32:23;5.93;;;2.85;;
84275;SDS011;74432;51.212;3.254;2024-03-02T03:34:49;4.70;;;2.60;;
84275;SDS011;74432;51.212;3.254;2024-03-02T03:37:16;6.00;;;2.70;;
84275;SDS011;74432;51.212;3.254;2024-03-02T03:39:42;4.05;;;2.45;;
84275;SDS011;74432;51.212;3.254;2024-03-02T03:42:07;5.28;;;2.95;;
84275;SDS011;74432;51.212;3.254;2024-03-02T03:44:33;6.88;;;2.78;;
84275;SDS011;74432;51.212;3.254;2024-03-02T03:46:59;8.75;;;3.05;;
84275;SDS011;74432;51.212;3.254;2024-03-02T03:49:27;5.95;;;3.30;;
84275;SDS011;74432;51.212;3.254;2024-03-02T03:51:52;8.82;;;3.38;;
84275;SDS011;74432;51.212;3.254;2024-03-02T03:54:18;7.03;;;3.25;;
84275;SDS011;74432;51.212;3.254;2024-03-02T03:56:43;7.35;;;3.20;;
84275;SDS011;74432;51.212;3.254;2024-03-02T03:59:09;8.73;;;3.45;;
84275;SDS011;74432;51.212;3.254;2024-03-02T04:01:35;4.97;;;3.15;;
84275;SDS011;74432;51.212;3.254;2024-03-02T04:04:00;5.82;;;3.45;;
84275;SDS011;74432;51.212;3.254;2024-03-02T04:06:28;4.15;;;3.20;;
84275;SDS011;74432;51.212;3.254;2024-03-02T04:08:57;5.82;;;3.13;;
84275;SDS011;74432;51.212;3.254;2024-03-02T04:11:23;4.68;;;3.00;;
84275;SDS011;74432;51.212;3.254;2024-03-02T04:13:49;5.95;;;3.10;;
84275;SDS011;74432;51.212;3.254;2024-03-02T04:16:14;6.82;;;3.50;;
84275;SDS011;74432;51.212;3.254;2024-03-02T04:18:40;4.10;;;2.90;;
84275;SDS011;74432;51.212;3.254;2024-03-02T04:21:06;6.70;;;3.40;;
84275;SDS011;74432;51.212;3.254;2024-03-02T04:23:32;5.97;;;3.00;;
84275;SDS011;74432;51.212;3.254;2024-03-02T04:25:57;10.15;;;3.95;;
84275;SDS011;74432;51.212;3.254;2024-03-02T04:28:23;6.97;;;3.33;;
84275;SDS011;74432;51.212;3.254;2024-03-02T04:30:48;4.75;;;3.05;;
84275;SDS011;74432;51.212;3.254;2024-03-02T04:33:14;4.57;;;2.72;;
84275;SDS011;74432;51.212;3.254;2024-03-02T04:35:40;4.68;;;2.72;;
84275;SDS011;74432;51.212;3.254;2024-03-02T04:38:05;4.30;;;3.10;;
84275;SDS011;74432;51.212;3.254;2024-03-02T04:40:31;8.38;;;2.65;;
84275;SDS011;74432;51.212;3.254;2024-03-02T04:42:57;4.05;;;2.70;;
84275;SDS011;74432;51.212;3.254;2024-03-02T04:45:24;7.90;;;3.10;;
84275;SDS011;74432;51.212;3.254;2024-03-02T04:47:49;9.13;;;3.20;;
84275;SDS011;74432;51.212;3.254;2024-03-02T04:50:15;6.38;;;2.90;;
84275;SDS011;74432;51.212;3.254;2024-03-02T04:52:41;6.32;;;3.67;;
84275;SDS011;74432;51.212;3.254;2024-03-02T04:55:06;4.25;;;2.47;;
84275;SDS011;74432;51.212;3.254;2024-03-02T04:57:44;5.15;;;2.30;;
84275;SDS011;74432;51.212;3.254;2024-03-02T05:00:11;4.63;;;2.33;;
84275;SDS011;74432;51.212;3.254;2024-03-02T05:02:37;6.05;;;2.58;;
84275;SDS011;74432;51.212;3.254;2024-03-02T05:05:03;4.43;;;2.42;;
84275;SDS011;74432;51.212;3.254;2024-03-02T05:07:29;3.58;;;2.10;;
84275;SDS011;74432;51.212;3.254;2024-03-02T05:09:55;8.02;;;2.63;;
84275;SDS011;74432;51.212;3.254;2024-03-02T05:12:20;5.45;;;2.30;;
84275;SDS011;74432;51.212;3.254;2024-03-02T05:15:05;4.38;;;2.30;;
84275;SDS011;74432;51.212;3.254;2024-03-02T05:17:33;6.55;;;2.30;;
84275;SDS011;74432;51.212;3.254;2024-03-02T05:19:59;7.72;;;2.70;;
84275;SDS011;74432;51.212;3.254;2024-03-02T05:22:25;4.80;;;2.40;;
84275;SDS011;74432;51.212;3.254;2024-03-02T05:24:50;4.55;;;2.13;;
84275;SDS011;74432;51.212;3.254;2024-03-02T05:27:16;8.15;;;2.45;;
84275;SDS011;74432;51.212;3.254;2024-03-02T05:29:42;3.53;;;2.00;;
84275;SDS011;74432;51.212;3.254;2024-03-02T05:32:07;7.22;;;2.20;;
84275;SDS011;74432;51.212;3.254;2024-03-02T05:34:33;4.18;;;2.10;;
84275;SDS011;74432;51.212;3.254;2024-03-02T05:37:00;3.95;;;2.28;;
84275;SDS011;74432;51.212;3.254;2024-03-02T05:39:26;4.45;;;2.22;;
84275;SDS011;74432;51.212;3.254;2024-03-02T05:41:52;10.80;;;2.53;;
84275;SDS011;74432;51.212;3.254;2024-03-02T05:44:17;7.45;;;2.40;;
84275;SDS011;74432;51.212;3.254;2024-03-02T05:46:44;6.60;;;2.83;;
84275;SDS011;74432;51.212;3.254;2024-03-02T05:49:10;6.90;;;3.03;;
84275;SDS011;74432;51.212;3.254;2024-03-02T05:51:36;5.10;;;2.80;;
84275;SDS011;74432;51.212;3.254;2024-03-02T05:54:02;8.02;;;3.38;;
84275;SDS011;74432;51.212;3.254;2024-03-02T05:56:27;5.35;;;2.58;;
84275;SDS011;74432;51.212;3.254;2024-03-02T05:58:53;6.50;;;2.67;;
84275;SDS011;74432;51.212;3.254;2024-03-02T06:01:41;5.75;;;2.80;;
84275;SDS011;74432;51.212;3.254;2024-03-02T06:04:09;6.82;;;2.55;;
84275;SDS011;74432;51.212;3.254;2024-03-02T06:06:36;5.35;;;2.42;;
84275;SDS011;74432;51.212;3.254;2024-03-02T06:09:02;6.95;;;2.20;;
84275;SDS011;74432;51.212;3.254;2024-03-02T06:11:37;5.07;;;2.13;;
84275;SDS011;74432;51.212;3.254;2024-03-02T06:14:04;4.03;;;2.00;;
84275;SDS011;74432;51.212;3.254;2024-03-02T06:16:33;2.88;;;1.85;;
84275;SDS011;74432;51.212;3.254;2024-03-02T06:19:00;5.57;;;2.10;;
84275;SDS011;74432;51.212;3.254;2024-03-02T06:21:29;5.45;;;2.45;;
84275;SDS011;74432;51.212;3.254;2024-03-02T06:23:54;3.65;;;1.85;;
84275;SDS011;74432;51.212;3.254;2024-03-02T06:26:21;3.50;;;1.98;;
84275;SDS011;74432;51.212;3.254;2024-03-02T06:28:47;6.57;;;2.33;;
84275;SDS011;74432;51.212;3.254;2024-03-02T06:31:12;8.50;;;2.00;;
84275;SDS011;74432;51.212;3.254;2024-03-02T06:33:38;4.25;;;1.85;;
84275;SDS011;74432;51.212;3.254;2024-03-02T06:36:05;8.55;;;2.35;;
84275;SDS011;74432;51.212;3.254;2024-03-02T06:38:33;6.75;;;2.42;;
84275;SDS011;74432;51.212;3.254;2024-03-02T06:40:59;7.93;;;2.67;;
84275;SDS011;74432;51.212;3.254;2024-03-02T06:43:25;4.15;;;1.85;;
84275;SDS011;74432;51.212;3.254;2024-03-02T06:45:50;5.60;;;2.60;;
84275;SDS011;74432;51.212;3.254;2024-03-02T06:48:17;10.15;;;3.35;;
84275;SDS011;74432;51.212;3.254;2024-03-02T06:50:48;8.40;;;2.58;;
84275;SDS011;74432;51.212;3.254;2024-03-02T06:53:14;4.50;;;2.55;;
84275;SDS011;74432;51.212;3.254;2024-03-02T06:55:43;7.03;;;2.40;;
84275;SDS011;74432;51.212;3.254;2024-03-02T06:58:10;5.30;;;2.38;;
84275;SDS011;74432;51.212;3.254;2024-03-02T07:00:36;6.40;;;2.42;;
84275;SDS011;74432;51.212;3.254;2024-03-02T07:03:02;9.88;;;2.35;;
84275;SDS011;74432;51.212;3.254;2024-03-02T07:05:28;5.88;;;1.95;;
84275;SDS011;74432;51.212;3.254;2024-03-02T07:07:53;6.15;;;2.08;;
84275;SDS011;74432;51.212;3.254;2024-03-02T07:10:19;8.50;;;1.80;;
84275;SDS011;74432;51.212;3.254;2024-03-02T07:12:45;9.73;;;2.35;;
84275;SDS011;74432;51.212;3.254;2024-03-02T07:15:10;7.03;;;2.17;;
84275;SDS011;74432;51.212;3.254;2024-03-02T07:17:46;7.40;;;1.90;;
84275;SDS011;74432;51.212;3.254;2024-03-02T07:20:12;11.80;;;2.00;;
84275;SDS011;74432;51.212;3.254;2024-03-02T07:22:38;5.50;;;2.13;;
84275;SDS011;74432;51.212;3.254;2024-03-02T07:25:04;14.82;;;2.60;;
84275;SDS011;74432;51.212;3.254;2024-03-02T07:27:32;10.68;;;2.45;;
84275;SDS011;74432;51.212;3.254;2024-03-02T07:29:58;9.57;;;2.25;;
84275;SDS011;74432;51.212;3.254;2024-03-02T07:32:24;12.38;;;2.80;;
84275;SDS011;74432;51.212;3.254;2024-03-02T07:34:50;9.52;;;2.13;;
84275;SDS011;74432;51.212;3.254;2024-03-02T07:37:16;5.60;;;1.70;;
84275;SDS011;74432;51.212;3.254;2024-03-02T07:39:43;16.17;;;2.50;;
84275;SDS011;74432;51.212;3.254;2024-03-02T07:42:09;5.80;;;1.80;;
84275;SDS011;74432;51.212;3.254;2024-03-02T07:44:35;7.25;;;1.77;;
84275;SDS011;74432;51.212;3.254;2024-03-02T07:47:00;6.90;;;1.75;;
84275;SDS011;74432;51.212;3.254;2024-03-02T07:49:26;7.80;;;1.73;;
84275;SDS011;74432;51.212;3.254;2024-03-02T07:51:52;8.38;;;1.70;;
84275;SDS011;74432;51.212;3.254;2024-03-02T07:54:17;7.10;;;1.52;;
84275;SDS011;74432;51.212;3.254;2024-03-02T07:56:43;7.47;;;1.80;;
84275;SDS011;74432;51.212;3.254;2024-03-02T07:59:10;11.38;;;2.00;;
84275;SDS011;74432;51.212;3.254;2024-03-02T08:01:36;9.98;;;1.80;;
84275;SDS011;74432;51.212;3.254;2024-03-02T08:04:01;14.27;;;2.08;;
84275;SDS011;74432;51.212;3.254;2024-03-02T08:06:30;13.13;;;1.90;;
84275;SDS011;74432;51.212;3.254;2024-03-02T08:08:56;11.70;;;2.05;;
84275;SDS011;74432;51.212;3.254;2024-03-02T08:11:23;6.43;;;1.80;;
84275;SDS011;74432;51.212;3.254;2024-03-02T08:13:51;6.93;;;1.48;;
84275;SDS011;74432;51.212;3.254;2024-03-02T08:16:19;7.03;;;1.83;;
84275;SDS011;74432;51.212;3.254;2024-03-02T08:18:49;6.78;;;2.08;;
84275;SDS011;74432;51.212;3.254;2024-03-02T08:21:16;10.73;;;2.60;;
84275;SDS011;74432;51.212;3.254;2024-03-02T08:23:44;10.90;;;1.90;;
84275;SDS011;74432;51.212;3.254;2024-03-02T08:26:10;9.95;;;1.63;;
84275;SDS011;74432;51.212;3.254;2024-03-02T08:28:36;9.00;;;1.80;;
84275;SDS011;74432;51.212;3.254;2024-03-02T08:31:06;7.43;;;1.60;;
84275;SDS011;74432;51.212;3.254;2024-03-02T08:33:32;11.27;;;1.92;;
84275;SDS011;74432;51.212;3.254;2024-03-02T08:35:58;5.70;;;1.70;;
84275;SDS011;74432;51.212;3.254;2024-03-02T08:38:24;9.48;;;2.05;;
84275;SDS011;74432;51.212;3.254;2024-03-02T08:40:50;4.07;;;1.65;;
84275;SDS011;74432;51.212;3.254;2024-03-02T08:43:16;8.05;;;2.38;;
84275;SDS011;74432;51.212;3.254;2024-03-02T08:45:42;5.55;;;1.58;;
84275;SDS011;74432;51.212;3.254;2024-03-02T08:48:08;4.93;;;1.63;;
84275;SDS011;74432;51.212;3.254;2024-03-02T08:50:34;8.13;;;2.25;;
84275;SDS011;74432;51.212;3.254;2024-03-02T08:53:00;6.03;;;2.58;;
84275;SDS011;74432;51.212;3.254;2024-03-02T08:55:26;9.57;;;1.83;;
84275;SDS011;74432;51.212;3.254;2024-03-02T08:57:51;8.30;;;2.72;;
84275;SDS011;74432;51.212;3.254;2024-03-02T09:00:18;7.90;;;2.38;;
84275;SDS011;74432;51.212;3.254;2024-03-02T09:02:44;13.80;;;5.75;;
84275;SDS011;74432;51.212;3.254;2024-03-02T09:05:10;11.88;;;3.05;;
84275;SDS011;74432;51.212;3.254;2024-03-02T09:07:36;11.02;;;3.78;;
84275;SDS011;74432;51.212;3.254;2024-03-02T09:10:03;18.50;;;6.40;;
84275;SDS011;74432;51.212;3.254;2024-03-02T09:12:30;11.02;;;2.88;;
84275;SDS011;74432;51.212;3.254;2024-03-02T09:14:55;8.13;;;2.47;;
84275;SDS011;74432;51.212;3.254;2024-03-02T09:17:22;11.10;;;2.28;;
84275;SDS011;74432;51.212;3.254;2024-03-02T09:19:48;7.03;;;2.08;;
84275;SDS011;74432;51.212;3.254;2024-03-02T09:22:13;8.75;;;2.00;;
84275;SDS011;74432;51.212;3.254;2024-03-02T09:24:39;8.50;;;1.92;;
84275;SDS011;74432;51.212;3.254;2024-03-02T09:27:05;14.48;;;2.92;;
84275;SDS011;74432;51.212;3.254;2024-03-02T09:29:30;9.65;;;2.15;;
84275;SDS011;74432;51.212;3.254;2024-03-02T09:31:56;9.95;;;2.30;;
84275;SDS011;74432;51.212;3.254;2024-03-02T09:34:22;6.90;;;2.10;;
84275;SDS011;74432;51.212;3.254;2024-03-02T09:36:47;12.82;;;1.98;;
84275;SDS011;74432;51.212;3.254;2024-03-02T09:39:13;8.52;;;2.10;;
84275;SDS011;74432;51.212;3.254;2024-03-02T09:41:39;7.60;;;1.67;;
84275;SDS011;74432;51.212;3.254;2024-03-02T09:44:08;6.35;;;1.85;;
84275;SDS011;74432;51.212;3.254;2024-03-02T09:46:33;9.93;;;1.83;;
84275;SDS011;74432;51.212;3.254;2024-03-02T09:49:01;4.22;;;1.35;;
84275;SDS011;74432;51.212;3.254;2024-03-02T09:51:27;10.95;;;1.85;;
84275;SDS011;74432;51.212;3.254;2024-03-02T09:53:54;9.38;;;2.15;;
84275;SDS011;74432;51.212;3.254;2024-03-02T09:56:23;11.48;;;2.58;;
84275;SDS011;74432;51.212;3.254;2024-03-02T09:58:49;8.32;;;2.05;;
84275;SDS011;74432;51.212;3.254;2024-03-02T10:01:14;10.43;;;2.10;;
84275;SDS011;74432;51.212;3.254;2024-03-02T10:03:40;7.97;;;1.92;;
84275;SDS011;74432;51.212;3.254;2024-03-02T10:08:49;8.80;;;2.28;;
84275;SDS011;74432;51.212;3.254;2024-03-02T10:11:25;13.27;;;2.38;;
84275;SDS011;74432;51.212;3.254;2024-03-02T10:14:00;10.77;;;1.70;;
84275;SDS011;74432;51.212;3.254;2024-03-02T10:16:30;10.50;;;2.30;;
84275;SDS011;74432;51.212;3.254;2024-03-02T10:18:56;12.00;;;2.33;;
84275;SDS011;74432;51.212;3.254;2024-03-02T10:21:21;11.45;;;3.40;;
84275;SDS011;74432;51.212;3.254;2024-03-02T10:23:49;19.55;;;8.35;;
84275;SDS011;74432;51.212;3.254;2024-03-02T10:26:17;9.65;;;2.40;;
84275;SDS011;74432;51.212;3.254;2024-03-02T10:28:47;17.20;;;2.97;;
84275;SDS011;74432;51.212;3.254;2024-03-02T10:31:12;13.18;;;2.42;;
84275;SDS011;74432;51.212;3.254;2024-03-02T10:33:39;11.88;;;2.05;;
84275;SDS011;74432;51.212;3.254;2024-03-02T10:36:05;9.75;;;2.22;;
84275;SDS011;74432;51.212;3.254;2024-03-02T10:38:32;6.60;;;2.08;;
84275;SDS011;74432;51.212;3.254;2024-03-02T10:40:58;8.88;;;2.25;;
84275;SDS011;74432;51.212;3.254;2024-03-02T10:43:24;8.90;;;1.80;;
84275;SDS011;74432;51.212;3.254;2024-03-02T10:45:51;7.03;;;1.88;;
84275;SDS011;74432;51.212;3.254;2024-03-02T10:48:18;10.45;;;2.03;;
84275;SDS011;74432;51.212;3.254;2024-03-02T10:50:47;11.95;;;2.03;;
84275;SDS011;74432;51.212;3.254;2024-03-02T10:53:13;4.93;;;1.60;;
84275;SDS011;74432;51.212;3.254;2024-03-02T10:55:39;6.82;;;1.70;;
84275;SDS011;74432;51.212;3.254;2024-03-02T10:58:05;10.32;;;2.60;;
84275;SDS011;74432;51.212;3.254;2024-03-02T11:00:33;8.35;;;1.77;;
84275;SDS011;74432;51.212;3.254;2024-03-02T11:03:04;10.52;;;1.90;;
84275;SDS011;74432;51.212;3.254;2024-03-02T11:05:31;5.93;;;1.65;;
84275;SDS011;74432;51.212;3.254;2024-03-02T11:08:01;10.25;;;1.70;;
84275;SDS011;74432;51.212;3.254;2024-03-02T11:13:01;3.72;;;1.63;;
84275;SDS011;74432;51.212;3.254;2024-03-02T11:15:30;7.75;;;1.60;;
84275;SDS011;74432;51.212;3.254;2024-03-02T11:17:59;4.93;;;1.60;;
84275;SDS011;74432;51.212;3.254;2024-03-02T11:20:25;11.63;;;2.00;;
84275;SDS011;74432;51.212;3.254;2024-03-02T11:22:52;7.95;;;1.98;;
84275;SDS011;74432;51.212;3.254;2024-03-02T11:25:24;6.38;;;1.75;;
84275;SDS011;74432;51.212;3.254;2024-03-02T11:33:01;9.07;;;1.83;;
84275;SDS011;74432;51.212;3.254;2024-03-02T11:35:33;8.38;;;2.00;;
84275;SDS011;74432;51.212;3.254;2024-03-02T11:38:11;5.50;;;1.58;;
84275;SDS011;74432;51.212;3.254;2024-03-02T11:40:38;10.63;;;1.52;;
84275;SDS011;74432;51.212;3.254;2024-03-02T11:43:05;4.50;;;1.85;;
84275;SDS011;74432;51.212;3.254;2024-03-02T11:45:33;9.30;;;1.95;;
84275;SDS011;74432;51.212;3.254;2024-03-02T11:47:59;7.13;;;2.00;;
84275;SDS011;74432;51.212;3.254;2024-03-02T11:53:06;7.72;;;2.00;;
84275;SDS011;74432;51.212;3.254;2024-03-02T11:55:37;8.32;;;1.95;;
84275;SDS011;74432;51.212;3.254;2024-03-02T11:58:04;8.55;;;2.05;;
84275;SDS011;74432;51.212;3.254;2024-03-02T12:00:30;7.63;;;2.17;;
84275;SDS011;74432;51.212;3.254;2024-03-02T12:03:06;10.18;;;2.63;;
84275;SDS011;74432;51.212;3.254;2024-03-02T12:05:33;7.97;;;1.88;;
84275;SDS011;74432;51.212;3.254;2024-03-02T12:08:06;6.47;;;1.90;;
84275;SDS011;74432;51.212;3.254;2024-03-02T12:10:33;14.95;;;2.47;;
84275;SDS011;74432;51.212;3.254;2024-03-02T12:13:00;8.60;;;2.10;;
84275;SDS011;74432;51.212;3.254;2024-03-02T12:15:27;6.38;;;2.00;;
84275;SDS011;74432;51.212;3.254;2024-03-02T12:17:58;6.50;;;1.55;;
84275;SDS011;74432;51.212;3.254;2024-03-02T12:20:26;8.57;;;2.58;;
84275;SDS011;74432;51.212;3.254;2024-03-02T12:22:56;7.00;;;1.75;;
84275;SDS011;74432;51.212;3.254;2024-03-02T12:25:24;11.30;;;2.08;;
84275;SDS011;74432;51.212;3.254;2024-03-02T12:27:51;7.03;;;1.73;;
84275;SDS011;74432;51.212;3.254;2024-03-02T12:30:21;4.32;;;1.65;;
84275;SDS011;74432;51.212;3.254;2024-03-02T12:32:47;7.32;;;1.67;;
84275;SDS011;74432;51.212;3.254;2024-03-02T12:35:14;6.32;;;1.70;;
84275;SDS011;74432;51.212;3.254;2024-03-02T12:37:46;9.25;;;1.88;;
84275;SDS011;74432;51.212;3.254;2024-03-02T12:40:14;8.52;;;2.75;;
84275;SDS011;74432;51.212;3.254;2024-03-02T12:42:42;7.88;;;2.30;;
84275;SDS011;74432;51.212;3.254;2024-03-02T12:45:08;7.78;;;2.80;;
84275;SDS011;74432;51.212;3.254;2024-03-02T12:47:34;6.93;;;2.25;;
84275;SDS011;74432;51.212;3.254;2024-03-02T12:50:01;6.57;;;1.83;;
84275;SDS011;74432;51.212;3.254;2024-03-02T12:52:28;7.07;;;2.00;;
84275;SDS011;74432;51.212;3.254;2024-03-02T12:54:54;7.68;;;2.20;;
84275;SDS011;74432;51.212;3.254;2024-03-02T12:57:25;7.40;;;2.47;;
84275;SDS011;74432;51.212;3.254;2024-03-02T12:59:52;4.88;;;2.13;;
84275;SDS011;74432;51.212;3.254;2024-03-02T13:02:22;7.57;;;2.00;;
84275;SDS011;74432;51.212;3.254;2024-03-02T13:04:54;8.35;;;2.53;;
84275;SDS011;74432;51.212;3.254;2024-03-02T13:07:20;6.75;;;2.00;;
84275;SDS011;74432;51.212;3.254;2024-03-02T13:09:47;9.38;;;3.05;;
84275;SDS011;74432;51.212;3.254;2024-03-02T13:12:17;8.32;;;3.03;;
84275;SDS011;74432;51.212;3.254;2024-03-02T13:14:44;14.73;;;5.22;;
84275;SDS011;74432;51.212;3.254;2024-03-02T13:17:13;10.32;;;4.63;;
84275;SDS011;74432;51.212;3.254;2024-03-02T13:19:55;13.20;;;4.32;;
84275;SDS011;74432;51.212;3.254;2024-03-02T13:22:25;14.00;;;4.35;;
84275;SDS011;74432;51.212;3.254;2024-03-02T13:24:52;14.30;;;3.33;;
84275;SDS011;74432;51.212;3.254;2024-03-02T13:27:21;11.52;;;3.28;;
84275;SDS011;74432;51.212;3.254;2024-03-02T13:29:47;12.38;;;5.50;;
84275;SDS011;74432;51.212;3.254;2024-03-02T13:32:16;9.52;;;3.45;;
84275;SDS011;74432;51.212;3.254;2024-03-02T13:34:43;6.88;;;2.90;;
84275;SDS011;74432;51.212;3.254;2024-03-02T13:37:09;7.50;;;2.40;;
84275;SDS011;74432;51.212;3.254;2024-03-02T13:39:35;6.90;;;2.38;;
84275;SDS011;74432;51.212;3.254;2024-03-02T13:42:07;5.70;;;2.22;;
84275;SDS011;74432;51.212;3.254;2024-03-02T13:44:34;7.50;;;2.20;;
84275;SDS011;74432;51.212;3.254;2024-03-02T13:47:00;5.75;;;2.08;;
84275;SDS011;74432;51.212;3.254;2024-03-02T13:49:26;8.63;;;3.13;;
84275;SDS011;74432;51.212;3.254;2024-03-02T13:52:00;6.43;;;2.70;;
84275;SDS011;74432;51.212;3.254;2024-03-02T13:54:28;8.07;;;2.83;;
84275;SDS011;74432;51.212;3.254;2024-03-02T13:56:55;9.73;;;2.40;;
84275;SDS011;74432;51.212;3.254;2024-03-02T13:59:22;6.28;;;2.33;;
84275;SDS011;74432;51.212;3.254;2024-03-02T14:01:48;9.35;;;3.28;;
84275;SDS011;74432;51.212;3.254;2024-03-02T14:04:14;4.50;;;2.03;;
84275;SDS011;74432;51.212;3.254;2024-03-02T14:06:40;6.32;;;1.90;;
84275;SDS011;74432;51.212;3.254;2024-03-02T14:09:08;7.70;;;2.25;;
84275;SDS011;74432;51.212;3.254;2024-03-02T14:11:34;7.90;;;2.20;;
84275;SDS011;74432;51.212;3.254;2024-03-02T14:14:00;6.57;;;2.17;;
84275;SDS011;74432;51.212;3.254;2024-03-02T14:16:27;6.22;;;2.38;;
84275;SDS011;74432;51.212;3.254;2024-03-02T14:18:53;6.07;;;1.80;;
84275;SDS011;74432;51.212;3.254;2024-03-02T14:21:19;3.80;;;1.80;;
84275;SDS011;74432;51.212;3.254;2024-03-02T14:23:44;3.78;;;1.65;;
84275;SDS011;74432;51.212;3.254;2024-03-02T14:26:10;4.00;;;1.60;;
84275;SDS011;74432;51.212;3.254;2024-03-02T14:28:35;4.97;;;1.70;;
84275;SDS011;74432;51.212;3.254;2024-03-02T14:31:01;4.40;;;1.88;;
84275;SDS011;74432;51.212;3.254;2024-03-02T14:33:27;2.95;;;1.70;;
84275;SDS011;74432;51.212;3.254;2024-03-02T14:35:53;4.47;;;1.88;;
84275;SDS011;74432;51.212;3.254;2024-03-02T14:38:22;4.50;;;2.13;;
84275;SDS011;74432;51.212;3.254;2024-03-02T14:40:48;5.55;;;2.20;;
84275;SDS011;74432;51.212;3.254;2024-03-02T14:43:13;3.72;;;2.05;;
84275;SDS011;74432;51.212;3.254;2024-03-02T14:45:39;5.45;;;1.95;;
84275;SDS011;74432;51.212;3.254;2024-03-02T14:48:05;4.93;;;1.80;;
84275;SDS011;74432;51.212;3.254;2024-03-02T14:50:31;3.22;;;1.80;;
84275;SDS011;74432;51.212;3.254;2024-03-02T14:52:58;6.03;;;1.90;;
84275;SDS011;74432;51.212;3.254;2024-03-02T14:55:25;4.07;;;1.70;;
84275;SDS011;74432;51.212;3.254;2024-03-02T14:57:50;4.18;;;1.90;;
84275;SDS011;74432;51.212;3.254;2024-03-02T15:00:16;4.30;;;1.70;;